FIN7PA ENZV-ESSA
Flight info
| Callsign | FIN7PA |
|---|---|
| Flight time | 1h 3m |
| Altitude | 37000 |
| Route | UPLEV DCT OSKOM DCT XIDMI DCT ELTOK |
| Aircraft | A319/M-SDE3FGHIRWY/LB1 |
Departure
| Time | 2026-05-04 09:01 |
|---|---|
| Airport | Stavanger Airport, Sola (ENZV) |
Arrival
| Time | 2026-05-04 10:04 |
|---|---|
| Airport | Stockholm-Arlanda Airport (ESSA) |
| Time | Latitude | Longitude | Altitude | Speed | Heading |
|---|---|---|---|---|---|
| 2026-05-04 08:37 | 58.88067 | 5.62904 | 26 ft | 0 kts | 344° |
| 2026-05-04 08:50 | 58.88066 | 5.62904 | 26 ft | 1 kts | 344° |
| 2026-05-04 08:50 | 58.88052 | 5.62912 | 26 ft | 2 kts | 343° |
| 2026-05-04 08:51 | 58.88038 | 5.62920 | 26 ft | 2 kts | 344° |
| 2026-05-04 08:51 | 58.88024 | 5.62928 | 26 ft | 2 kts | 344° |
| 2026-05-04 08:51 | 58.88009 | 5.62936 | 26 ft | 2 kts | 344° |
| 2026-05-04 08:51 | 58.87995 | 5.62932 | 25 ft | 2 kts | 37° |
| 2026-05-04 08:52 | 58.87987 | 5.62910 | 25 ft | 1 kts | 79° |
| 2026-05-04 08:52 | 58.87986 | 5.62899 | 24 ft | 1 kts | 90° |
| 2026-05-04 08:52 | 58.87986 | 5.62892 | 24 ft | 0 kts | 86° |
| 2026-05-04 08:54 | 58.87986 | 5.62893 | 24 ft | 0 kts | 86° |
| 2026-05-04 08:55 | 58.87986 | 5.62906 | 25 ft | 2 kts | 86° |
| 2026-05-04 08:55 | 58.87990 | 5.62962 | 26 ft | 4 kts | 78° |
| 2026-05-04 08:55 | 58.88010 | 5.63047 | 27 ft | 9 kts | 61° |
| 2026-05-04 08:55 | 58.88057 | 5.63160 | 27 ft | 11 kts | 43° |
| 2026-05-04 08:57 | 58.88585 | 5.63422 | 33 ft | 17 kts | 360° |
| 2026-05-04 09:01 | 58.84220 | 5.63880 | 2562 ft | 177 kts | 184° |
| 2026-05-04 09:01 | 58.82928 | 5.63893 | 3188 ft | 195 kts | 184° |
| 2026-05-04 09:01 | 58.81536 | 5.63917 | 3807 ft | 212 kts | 184° |
| 2026-05-04 09:01 | 58.79985 | 5.63946 | 4386 ft | 234 kts | 184° |
| 2026-05-04 09:02 | 58.78315 | 5.63980 | 5012 ft | 254 kts | 184° |
| 2026-05-04 09:02 | 58.76471 | 5.64024 | 5675 ft | 272 kts | 183° |
| 2026-05-04 09:02 | 58.74586 | 5.64683 | 6486 ft | 291 kts | 158° |
| 2026-05-04 09:02 | 58.73051 | 5.67184 | 7475 ft | 299 kts | 126° |
| 2026-05-04 09:03 | 58.72071 | 5.70725 | 8398 ft | 305 kts | 115° |
| 2026-05-04 09:03 | 58.71185 | 5.74474 | 9233 ft | 314 kts | 116° |
| 2026-05-04 09:03 | 58.70224 | 5.78218 | 10083 ft | 320 kts | 115° |
| 2026-05-04 09:03 | 58.69715 | 5.82416 | 10840 ft | 329 kts | 86° |
| 2026-05-04 09:04 | 58.70289 | 5.86576 | 11651 ft | 324 kts | 54° |
| 2026-05-04 09:04 | 58.71589 | 5.90032 | 12446 ft | 324 kts | 45° |
| 2026-05-04 09:04 | 58.73048 | 5.93413 | 13167 ft | 333 kts | 44° |
| 2026-05-04 09:04 | 58.74521 | 5.96832 | 13885 ft | 340 kts | 44° |
| 2026-05-04 09:05 | 58.75963 | 6.00250 | 14590 ft | 346 kts | 45° |
| 2026-05-04 09:05 | 58.77464 | 6.03889 | 15336 ft | 351 kts | 46° |
| 2026-05-04 09:05 | 58.78977 | 6.07613 | 16055 ft | 356 kts | 46° |
| 2026-05-04 09:05 | 58.80505 | 6.11406 | 16761 ft | 361 kts | 46° |
| 2026-05-04 09:06 | 58.82027 | 6.15205 | 17447 ft | 366 kts | 46° |
| 2026-05-04 09:07 | 58.93260 | 6.43481 | 22098 ft | 393 kts | 48° |
| 2026-05-04 09:08 | 58.94917 | 6.47685 | 22739 ft | 396 kts | 48° |
| 2026-05-04 09:08 | 58.96593 | 6.51938 | 23340 ft | 400 kts | 48° |
| 2026-05-04 09:08 | 58.98281 | 6.56234 | 23919 ft | 404 kts | 48° |
| 2026-05-04 09:08 | 58.99968 | 6.60539 | 24510 ft | 407 kts | 48° |
| 2026-05-04 09:09 | 59.01690 | 6.64941 | 25109 ft | 409 kts | 47° |
| 2026-05-04 09:09 | 59.03396 | 6.69319 | 25683 ft | 411 kts | 48° |
| 2026-05-04 09:09 | 59.05108 | 6.73718 | 26212 ft | 414 kts | 48° |
| 2026-05-04 09:09 | 59.06855 | 6.78212 | 26772 ft | 417 kts | 47° |
| 2026-05-04 09:10 | 59.08570 | 6.82737 | 27270 ft | 422 kts | 52° |
| 2026-05-04 09:10 | 59.09952 | 6.87785 | 27766 ft | 431 kts | 64° |
| 2026-05-04 09:10 | 59.10833 | 6.93382 | 28273 ft | 438 kts | 75° |
| 2026-05-04 09:10 | 59.11392 | 6.99195 | 28758 ft | 441 kts | 78° |
| 2026-05-04 09:11 | 59.11884 | 7.05166 | 29211 ft | 445 kts | 78° |
| 2026-05-04 09:11 | 59.12366 | 7.11098 | 29654 ft | 447 kts | 78° |
| 2026-05-04 09:11 | 59.12860 | 7.17016 | 30087 ft | 450 kts | 77° |
| 2026-05-04 09:11 | 59.13374 | 7.23013 | 30497 ft | 453 kts | 77° |
| 2026-05-04 09:12 | 59.13896 | 7.29042 | 30874 ft | 456 kts | 77° |
| 2026-05-04 09:12 | 59.14423 | 7.35105 | 31242 ft | 458 kts | 77° |
| 2026-05-04 09:14 | 59.19669 | 7.77660 | 33717 ft | 465 kts | 71° |
| 2026-05-04 09:14 | 59.20538 | 7.83717 | 34021 ft | 464 kts | 71° |
| 2026-05-04 09:14 | 59.21403 | 7.89770 | 34300 ft | 465 kts | 71° |
| 2026-05-04 09:14 | 59.22257 | 7.95782 | 34542 ft | 465 kts | 71° |
| 2026-05-04 09:15 | 59.23119 | 8.01857 | 34779 ft | 466 kts | 71° |
| 2026-05-04 09:15 | 59.23975 | 8.07930 | 34999 ft | 466 kts | 71° |
| 2026-05-04 09:15 | 59.24833 | 8.14024 | 35181 ft | 468 kts | 72° |
| 2026-05-04 09:15 | 59.25687 | 8.20127 | 35373 ft | 469 kts | 72° |
| 2026-05-04 09:17 | 59.32455 | 8.69436 | 36689 ft | 476 kts | 75° |
| 2026-05-04 09:18 | 59.34137 | 8.81978 | 36696 ft | 476 kts | 75° |
| 2026-05-04 09:18 | 59.35802 | 8.94479 | 36684 ft | 476 kts | 75° |
| 2026-05-04 09:19 | 59.37450 | 9.06931 | 36691 ft | 475 kts | 75° |
| 2026-05-04 09:19 | 59.39093 | 9.19452 | 36701 ft | 475 kts | 75° |
| 2026-05-04 09:20 | 59.40720 | 9.31938 | 36715 ft | 476 kts | 75° |
| 2026-05-04 09:20 | 59.42342 | 9.44492 | 36725 ft | 476 kts | 75° |
| 2026-05-04 09:21 | 59.43947 | 9.57025 | 36694 ft | 476 kts | 75° |
| 2026-05-04 09:21 | 59.45560 | 9.69712 | 36696 ft | 476 kts | 76° |
| 2026-05-04 09:22 | 59.47139 | 9.82286 | 36699 ft | 476 kts | 76° |
| 2026-05-04 09:22 | 59.48714 | 9.94929 | 36683 ft | 477 kts | 76° |
| 2026-05-04 09:23 | 59.50276 | 10.07559 | 36688 ft | 477 kts | 76° |
| 2026-05-04 09:23 | 59.51832 | 10.20239 | 36682 ft | 477 kts | 76° |
| 2026-05-04 09:25 | 59.57910 | 10.70887 | 36684 ft | 477 kts | 77° |
| 2026-05-04 09:26 | 59.59396 | 10.83592 | 36698 ft | 478 kts | 77° |
| 2026-05-04 09:26 | 59.60881 | 10.96387 | 36675 ft | 477 kts | 77° |
| 2026-05-04 09:27 | 59.62351 | 11.09146 | 36682 ft | 478 kts | 77° |
| 2026-05-04 09:27 | 59.63810 | 11.21924 | 36681 ft | 478 kts | 78° |
| 2026-05-04 09:28 | 59.65259 | 11.34731 | 36683 ft | 478 kts | 77° |
| 2026-05-04 09:28 | 59.66689 | 11.47498 | 36666 ft | 478 kts | 78° |
| 2026-05-04 09:29 | 59.68111 | 11.60302 | 36670 ft | 478 kts | 78° |
| 2026-05-04 09:29 | 59.69519 | 11.73080 | 36671 ft | 478 kts | 78° |
| 2026-05-04 09:30 | 59.70911 | 11.85891 | 36668 ft | 478 kts | 79° |
| 2026-05-04 09:30 | 59.71962 | 11.98798 | 36664 ft | 477 kts | 86° |
| 2026-05-04 09:31 | 59.72487 | 12.11891 | 36664 ft | 477 kts | 87° |
| 2026-05-04 09:31 | 59.72961 | 12.24891 | 36645 ft | 477 kts | 87° |
| 2026-05-04 09:32 | 59.73442 | 12.38002 | 36645 ft | 477 kts | 87° |
| 2026-05-04 09:34 | 59.75264 | 12.90217 | 36646 ft | 476 kts | 88° |
| 2026-05-04 09:34 | 59.75686 | 13.03206 | 36664 ft | 476 kts | 89° |
| 2026-05-04 09:35 | 59.76097 | 13.16276 | 36663 ft | 476 kts | 88° |
| 2026-05-04 09:35 | 59.76495 | 13.29360 | 36278 ft | 475 kts | 88° |
| 2026-05-04 09:37 | 59.77807 | 13.75945 | 32241 ft | 498 kts | 90° |
| 2026-05-04 09:37 | 59.77986 | 13.82778 | 31739 ft | 495 kts | 90° |
| 2026-05-04 09:38 | 59.78160 | 13.89576 | 31233 ft | 492 kts | 90° |
| 2026-05-04 09:38 | 59.78331 | 13.96317 | 30741 ft | 486 kts | 90° |
| 2026-05-04 09:38 | 59.78497 | 14.02967 | 30262 ft | 480 kts | 90° |
| 2026-05-04 09:38 | 59.78656 | 14.09544 | 29769 ft | 474 kts | 90° |
| 2026-05-04 09:39 | 59.78810 | 14.15989 | 29312 ft | 467 kts | 90° |
| 2026-05-04 09:39 | 59.78960 | 14.22414 | 28864 ft | 461 kts | 90° |
| 2026-05-04 09:39 | 59.79104 | 14.28726 | 28417 ft | 455 kts | 90° |
| 2026-05-04 09:39 | 59.79241 | 14.34892 | 27984 ft | 449 kts | 90° |
| 2026-05-04 09:40 | 59.79375 | 14.40988 | 27575 ft | 443 kts | 90° |
| 2026-05-04 09:40 | 59.79504 | 14.47086 | 27153 ft | 438 kts | 90° |
| 2026-05-04 09:40 | 59.79629 | 14.53099 | 26728 ft | 433 kts | 90° |
| 2026-05-04 09:40 | 59.79750 | 14.58977 | 26338 ft | 428 kts | 90° |
| 2026-05-04 09:41 | 59.79869 | 14.64899 | 25926 ft | 423 kts | 90° |
| 2026-05-04 09:42 | 59.80584 | 15.04198 | 23183 ft | 397 kts | 91° |
| 2026-05-04 09:43 | 59.80673 | 15.09691 | 22803 ft | 395 kts | 91° |
| 2026-05-04 09:43 | 59.80760 | 15.15088 | 22452 ft | 391 kts | 91° |
| 2026-05-04 09:43 | 59.80844 | 15.20422 | 22074 ft | 389 kts | 91° |
| 2026-05-04 09:43 | 59.80926 | 15.25733 | 21699 ft | 386 kts | 91° |
| 2026-05-04 09:44 | 59.81005 | 15.31073 | 21328 ft | 384 kts | 91° |
| 2026-05-04 09:44 | 59.81080 | 15.36303 | 20960 ft | 382 kts | 91° |
| 2026-05-04 09:44 | 59.81153 | 15.41534 | 20583 ft | 380 kts | 91° |
| 2026-05-04 09:46 | 59.81605 | 15.77512 | 18033 ft | 366 kts | 92° |
| 2026-05-04 09:46 | 59.81661 | 15.82622 | 17665 ft | 364 kts | 92° |
| 2026-05-04 09:46 | 59.81713 | 15.87625 | 17303 ft | 363 kts | 91° |
| 2026-05-04 09:47 | 59.81763 | 15.92583 | 16948 ft | 361 kts | 91° |
| 2026-05-04 09:47 | 59.81811 | 15.97541 | 16596 ft | 360 kts | 91° |
| 2026-05-04 09:49 | 59.82097 | 16.31762 | 14083 ft | 349 kts | 90° |
| 2026-05-04 09:49 | 59.82131 | 16.36522 | 13739 ft | 347 kts | 90° |
| 2026-05-04 09:49 | 59.82163 | 16.41336 | 13393 ft | 345 kts | 90° |
| 2026-05-04 09:51 | 59.82314 | 16.69299 | 11291 ft | 330 kts | 91° |
| 2026-05-04 09:51 | 59.82333 | 16.73802 | 10957 ft | 328 kts | 91° |
| 2026-05-04 09:51 | 59.82351 | 16.78276 | 10606 ft | 325 kts | 91° |
| 2026-05-04 09:51 | 59.82367 | 16.82774 | 10266 ft | 322 kts | 90° |
| 2026-05-04 09:52 | 59.82380 | 16.87147 | 9918 ft | 319 kts | 90° |
| 2026-05-04 09:52 | 59.82391 | 16.91566 | 9638 ft | 314 kts | 90° |
| 2026-05-04 09:52 | 59.82402 | 16.95828 | 9404 ft | 309 kts | 90° |
| 2026-05-04 09:52 | 59.82473 | 17.00024 | 9078 ft | 307 kts | 86° |
| 2026-05-04 09:53 | 59.82689 | 17.04281 | 8757 ft | 305 kts | 83° |
| 2026-05-04 09:53 | 59.82938 | 17.08438 | 8438 ft | 302 kts | 83° |
| 2026-05-04 09:53 | 59.83184 | 17.12533 | 8141 ft | 300 kts | 83° |
| 2026-05-04 09:53 | 59.83427 | 17.16660 | 7841 ft | 297 kts | 83° |
| 2026-05-04 09:54 | 59.83660 | 17.20695 | 7559 ft | 294 kts | 83° |
| 2026-05-04 09:54 | 59.83840 | 17.24697 | 7265 ft | 291 kts | 88° |
| 2026-05-04 09:54 | 59.83803 | 17.28708 | 6963 ft | 288 kts | 95° |
| 2026-05-04 09:54 | 59.83627 | 17.32617 | 6685 ft | 286 kts | 96° |
| 2026-05-04 09:55 | 59.83429 | 17.36494 | 6384 ft | 283 kts | 96° |
| 2026-05-04 09:55 | 59.83228 | 17.40384 | 6084 ft | 280 kts | 96° |
| 2026-05-04 09:55 | 59.83035 | 17.44189 | 5789 ft | 278 kts | 96° |
| 2026-05-04 09:55 | 59.82841 | 17.48025 | 5491 ft | 276 kts | 96° |
| 2026-05-04 09:56 | 59.82654 | 17.51758 | 5249 ft | 270 kts | 96° |
| 2026-05-04 09:56 | 59.82471 | 17.55398 | 4980 ft | 266 kts | 96° |
| 2026-05-04 09:56 | 59.82288 | 17.59030 | 4713 ft | 262 kts | 96° |
| 2026-05-04 09:56 | 59.82109 | 17.62586 | 4460 ft | 258 kts | 96° |
| 2026-05-04 09:57 | 59.81928 | 17.66157 | 4165 ft | 257 kts | 97° |
| 2026-05-04 09:57 | 59.81750 | 17.69665 | 3861 ft | 255 kts | 97° |
| 2026-05-04 09:57 | 59.81574 | 17.73128 | 3592 ft | 252 kts | 97° |
| 2026-05-04 09:57 | 59.81402 | 17.76512 | 3481 ft | 243 kts | 97° |
| 2026-05-04 09:58 | 59.81235 | 17.79766 | 3431 ft | 230 kts | 97° |
| 2026-05-04 09:58 | 59.81076 | 17.82842 | 3395 ft | 223 kts | 97° |
| 2026-05-04 09:58 | 59.80916 | 17.85919 | 3363 ft | 222 kts | 97° |
| 2026-05-04 10:00 | 59.77278 | 18.01454 | 2476 ft | 173 kts | 204° |
| 2026-05-04 10:00 | 59.76161 | 18.00537 | 2493 ft | 173 kts | 204° |
| 2026-05-04 10:02 | 59.69148 | 17.97435 | 1011 ft | 125 kts | 193° |
| 2026-05-04 10:04 | 59.63540 | 17.95405 | 148 ft | 55 kts | 189° |
| 2026-05-04 10:04 | 59.63261 | 17.95304 | 148 ft | 36 kts | 190° |
| 2026-05-04 10:04 | 59.63031 | 17.95170 | 148 ft | 33 kts | 207° |
| 2026-05-04 10:04 | 59.62875 | 17.94939 | 148 ft | 20 kts | 223° |
| 2026-05-04 10:05 | 59.62869 | 17.94754 | 148 ft | 14 kts | 346° |
| 2026-05-04 10:05 | 59.62978 | 17.94786 | 148 ft | 17 kts | 11° |
| 2026-05-04 10:05 | 59.63101 | 17.94832 | 148 ft | 19 kts | 10° |
| 2026-05-04 10:05 | 59.63247 | 17.94886 | 148 ft | 22 kts | 10° |
| 2026-05-04 10:06 | 59.63397 | 17.94938 | 148 ft | 22 kts | 10° |
| 2026-05-04 10:06 | 59.63548 | 17.94993 | 148 ft | 22 kts | 10° |
| 2026-05-04 10:06 | 59.63702 | 17.95050 | 148 ft | 24 kts | 11° |
| 2026-05-04 10:08 | 59.64340 | 17.94578 | 148 ft | 22 kts | 237° |
| 2026-05-04 10:08 | 59.64258 | 17.94321 | 148 ft | 22 kts | 237° |
| 2026-05-04 10:08 | 59.64178 | 17.94066 | 148 ft | 21 kts | 239° |
| 2026-05-04 10:08 | 59.64102 | 17.93823 | 148 ft | 19 kts | 238° |
| 2026-05-04 10:09 | 59.64029 | 17.93603 | 148 ft | 18 kts | 238° |
| 2026-05-04 10:09 | 59.63988 | 17.93362 | 148 ft | 19 kts | 272° |
| 2026-05-04 10:09 | 59.64036 | 17.93112 | 148 ft | 19 kts | 298° |
| 2026-05-04 10:09 | 59.64098 | 17.92880 | 148 ft | 18 kts | 297° |
| 2026-05-04 10:10 | 59.64150 | 17.92679 | 148 ft | 15 kts | 297° |
| 2026-05-04 10:10 | 59.64199 | 17.92506 | 148 ft | 13 kts | 311° |
| 2026-05-04 10:10 | 59.64274 | 17.92490 | 148 ft | 10 kts | 358° |
| 2026-05-04 10:10 | 59.64319 | 17.92397 | 148 ft | 7 kts | 315° |
| 2026-05-04 10:11 | 59.64372 | 17.92428 | 148 ft | 8 kts | 33° |
| 2026-05-04 10:11 | 59.64423 | 17.92499 | 148 ft | 9 kts | 41° |
| 2026-05-04 10:11 | 59.64453 | 17.92584 | 148 ft | 6 kts | 57° |
| 2026-05-04 10:11 | 59.64467 | 17.92626 | 148 ft | 1 kts | 57° |
| 2026-05-04 10:12 | 59.64468 | 17.92630 | 148 ft | 0 kts | 57° |